sensor_id;sensor_type;location;lat;lon;timestamp;P1;durP1;ratioP1;P2;durP2;ratioP2
18090;SDS011;9172;49.948;9.208;2023-09-19T00:02:16;4.20;;;0.60;;
18090;SDS011;9172;49.948;9.208;2023-09-19T00:04:44;0.93;;;0.73;;
18090;SDS011;9172;49.948;9.208;2023-09-19T00:07:14;2.90;;;0.73;;
18090;SDS011;9172;49.948;9.208;2023-09-19T00:09:43;1.97;;;0.63;;
18090;SDS011;9172;49.948;9.208;2023-09-19T00:12:13;0.83;;;0.60;;
18090;SDS011;9172;49.948;9.208;2023-09-19T00:14:41;1.03;;;0.77;;
18090;SDS011;9172;49.948;9.208;2023-09-19T00:17:10;1.33;;;0.73;;
18090;SDS011;9172;49.948;9.208;2023-09-19T00:19:38;1.60;;;0.60;;
18090;SDS011;9172;49.948;9.208;2023-09-19T00:22:08;4.03;;;0.70;;
18090;SDS011;9172;49.948;9.208;2023-09-19T00:24:38;1.60;;;0.80;;
18090;SDS011;9172;49.948;9.208;2023-09-19T00:27:07;0.93;;;0.60;;
18090;SDS011;9172;49.948;9.208;2023-09-19T00:29:36;1.13;;;0.60;;
18090;SDS011;9172;49.948;9.208;2023-09-19T00:32:07;1.40;;;0.60;;
18090;SDS011;9172;49.948;9.208;2023-09-19T00:34:35;2.50;;;0.63;;
18090;SDS011;9172;49.948;9.208;2023-09-19T00:37:04;1.47;;;0.80;;
18090;SDS011;9172;49.948;9.208;2023-09-19T00:39:32;1.20;;;0.70;;
18090;SDS011;9172;49.948;9.208;2023-09-19T00:42:01;1.77;;;0.80;;
18090;SDS011;9172;49.948;9.208;2023-09-19T00:44:31;2.33;;;0.80;;
18090;SDS011;9172;49.948;9.208;2023-09-19T00:47:00;1.43;;;0.50;;
18090;SDS011;9172;49.948;9.208;2023-09-19T00:49:30;0.90;;;0.60;;
18090;SDS011;9172;49.948;9.208;2023-09-19T00:52:00;1.70;;;0.80;;
18090;SDS011;9172;49.948;9.208;2023-09-19T00:54:30;1.33;;;0.60;;
18090;SDS011;9172;49.948;9.208;2023-09-19T00:57:00;2.67;;;0.80;;
18090;SDS011;9172;49.948;9.208;2023-09-19T00:59:29;1.53;;;0.70;;
18090;SDS011;9172;49.948;9.208;2023-09-19T01:01:58;2.80;;;0.77;;
18090;SDS011;9172;49.948;9.208;2023-09-19T01:04:26;3.00;;;0.60;;
18090;SDS011;9172;49.948;9.208;2023-09-19T01:06:55;1.93;;;1.07;;
18090;SDS011;9172;49.948;9.208;2023-09-19T01:09:24;2.07;;;0.60;;
18090;SDS011;9172;49.948;9.208;2023-09-19T01:11:55;2.53;;;0.90;;
18090;SDS011;9172;49.948;9.208;2023-09-19T01:14:28;1.70;;;0.60;;
18090;SDS011;9172;49.948;9.208;2023-09-19T01:17:00;1.90;;;0.80;;
18090;SDS011;9172;49.948;9.208;2023-09-19T01:22:29;1.13;;;0.67;;
18090;SDS011;9172;49.948;9.208;2023-09-19T01:25:12;1.60;;;0.70;;
18090;SDS011;9172;49.948;9.208;2023-09-19T01:28:15;2.73;;;1.13;;
18090;SDS011;9172;49.948;9.208;2023-09-19T01:30:44;1.97;;;0.63;;
18090;SDS011;9172;49.948;9.208;2023-09-19T01:33:17;4.23;;;1.00;;
18090;SDS011;9172;49.948;9.208;2023-09-19T01:35:46;1.03;;;0.83;;
18090;SDS011;9172;49.948;9.208;2023-09-19T01:38:15;1.77;;;0.90;;
18090;SDS011;9172;49.948;9.208;2023-09-19T01:40:47;1.73;;;0.73;;
18090;SDS011;9172;49.948;9.208;2023-09-19T01:43:20;3.30;;;1.00;;
18090;SDS011;9172;49.948;9.208;2023-09-19T01:45:53;4.83;;;0.70;;
18090;SDS011;9172;49.948;9.208;2023-09-19T01:48:25;1.80;;;1.00;;
18090;SDS011;9172;49.948;9.208;2023-09-19T01:50:56;1.60;;;0.90;;
18090;SDS011;9172;49.948;9.208;2023-09-19T01:53:28;2.67;;;0.90;;
18090;SDS011;9172;49.948;9.208;2023-09-19T01:55:59;1.43;;;0.90;;
18090;SDS011;9172;49.948;9.208;2023-09-19T01:58:33;2.13;;;1.00;;
18090;SDS011;9172;49.948;9.208;2023-09-19T02:01:04;3.63;;;1.10;;
18090;SDS011;9172;49.948;9.208;2023-09-19T02:03:33;2.13;;;1.10;;
18090;SDS011;9172;49.948;9.208;2023-09-19T02:06:03;2.03;;;1.33;;
18090;SDS011;9172;49.948;9.208;2023-09-19T02:08:34;4.80;;;1.17;;
18090;SDS011;9172;49.948;9.208;2023-09-19T02:11:03;1.40;;;1.00;;
18090;SDS011;9172;49.948;9.208;2023-09-19T02:13:32;1.17;;;0.80;;
18090;SDS011;9172;49.948;9.208;2023-09-19T02:16:09;1.47;;;0.90;;
18090;SDS011;9172;49.948;9.208;2023-09-19T02:18:38;3.13;;;1.23;;
18090;SDS011;9172;49.948;9.208;2023-09-19T02:21:07;2.93;;;1.23;;
18090;SDS011;9172;49.948;9.208;2023-09-19T02:23:37;1.70;;;1.00;;
18090;SDS011;9172;49.948;9.208;2023-09-19T02:26:07;1.87;;;1.13;;
18090;SDS011;9172;49.948;9.208;2023-09-19T02:28:37;1.33;;;0.97;;
18090;SDS011;9172;49.948;9.208;2023-09-19T02:31:05;2.43;;;0.80;;
18090;SDS011;9172;49.948;9.208;2023-09-19T02:33:34;3.67;;;1.07;;
18090;SDS011;9172;49.948;9.208;2023-09-19T02:36:03;3.43;;;1.30;;
18090;SDS011;9172;49.948;9.208;2023-09-19T02:38:34;1.70;;;0.90;;
18090;SDS011;9172;49.948;9.208;2023-09-19T02:41:03;1.67;;;0.90;;
18090;SDS011;9172;49.948;9.208;2023-09-19T02:43:32;1.50;;;0.90;;
18090;SDS011;9172;49.948;9.208;2023-09-19T02:46:02;1.63;;;0.93;;
18090;SDS011;9172;49.948;9.208;2023-09-19T02:48:30;5.17;;;1.30;;
18090;SDS011;9172;49.948;9.208;2023-09-19T02:51:00;2.63;;;1.40;;
18090;SDS011;9172;49.948;9.208;2023-09-19T02:53:31;6.00;;;1.40;;
18090;SDS011;9172;49.948;9.208;2023-09-19T02:56:00;2.43;;;1.47;;
18090;SDS011;9172;49.948;9.208;2023-09-19T02:58:30;3.03;;;1.40;;
18090;SDS011;9172;49.948;9.208;2023-09-19T03:01:07;2.67;;;1.60;;
18090;SDS011;9172;49.948;9.208;2023-09-19T03:03:37;4.33;;;1.80;;
18090;SDS011;9172;49.948;9.208;2023-09-19T03:06:07;1.83;;;1.13;;
18090;SDS011;9172;49.948;9.208;2023-09-19T03:08:36;6.70;;;1.63;;
18090;SDS011;9172;49.948;9.208;2023-09-19T03:11:05;4.00;;;1.60;;
18090;SDS011;9172;49.948;9.208;2023-09-19T03:13:37;1.33;;;1.20;;
18090;SDS011;9172;49.948;9.208;2023-09-19T03:16:08;1.50;;;1.10;;
18090;SDS011;9172;49.948;9.208;2023-09-19T03:18:37;3.87;;;1.50;;
18090;SDS011;9172;49.948;9.208;2023-09-19T03:21:06;3.03;;;1.50;;
18090;SDS011;9172;49.948;9.208;2023-09-19T03:23:34;4.17;;;1.57;;
18090;SDS011;9172;49.948;9.208;2023-09-19T03:26:05;5.13;;;1.37;;
18090;SDS011;9172;49.948;9.208;2023-09-19T03:28:34;2.63;;;1.63;;
18090;SDS011;9172;49.948;9.208;2023-09-19T03:31:04;4.33;;;1.50;;
18090;SDS011;9172;49.948;9.208;2023-09-19T03:33:34;4.90;;;1.60;;
18090;SDS011;9172;49.948;9.208;2023-09-19T03:36:04;3.70;;;1.20;;
18090;SDS011;9172;49.948;9.208;2023-09-19T03:38:33;2.37;;;1.43;;
18090;SDS011;9172;49.948;9.208;2023-09-19T03:41:02;3.97;;;1.23;;
18090;SDS011;9172;49.948;9.208;2023-09-19T03:43:32;4.80;;;1.90;;
18090;SDS011;9172;49.948;9.208;2023-09-19T03:46:01;2.63;;;1.30;;
18090;SDS011;9172;49.948;9.208;2023-09-19T03:48:31;6.20;;;1.40;;
18090;SDS011;9172;49.948;9.208;2023-09-19T03:50:59;1.47;;;1.30;;
18090;SDS011;9172;49.948;9.208;2023-09-19T03:53:28;2.87;;;1.30;;
18090;SDS011;9172;49.948;9.208;2023-09-19T03:55:57;9.30;;;1.80;;
18090;SDS011;9172;49.948;9.208;2023-09-19T03:58:26;2.77;;;1.17;;
18090;SDS011;9172;49.948;9.208;2023-09-19T04:00:59;1.40;;;1.10;;
18090;SDS011;9172;49.948;9.208;2023-09-19T04:03:28;2.40;;;1.37;;
18090;SDS011;9172;49.948;9.208;2023-09-19T04:05:58;2.50;;;1.20;;
18090;SDS011;9172;49.948;9.208;2023-09-19T04:08:27;1.97;;;1.10;;
18090;SDS011;9172;49.948;9.208;2023-09-19T04:10:56;5.27;;;1.50;;
18090;SDS011;9172;49.948;9.208;2023-09-19T04:13:25;3.00;;;1.30;;
18090;SDS011;9172;49.948;9.208;2023-09-19T04:15:54;5.00;;;1.47;;
18090;SDS011;9172;49.948;9.208;2023-09-19T04:18:23;3.00;;;1.60;;
18090;SDS011;9172;49.948;9.208;2023-09-19T04:20:52;2.40;;;1.30;;
18090;SDS011;9172;49.948;9.208;2023-09-19T04:23:22;3.43;;;1.30;;
18090;SDS011;9172;49.948;9.208;2023-09-19T04:25:51;3.27;;;1.37;;
18090;SDS011;9172;49.948;9.208;2023-09-19T04:28:20;4.00;;;1.10;;
18090;SDS011;9172;49.948;9.208;2023-09-19T04:30:49;1.83;;;1.13;;
18090;SDS011;9172;49.948;9.208;2023-09-19T04:33:18;3.80;;;1.30;;
18090;SDS011;9172;49.948;9.208;2023-09-19T04:35:49;5.73;;;1.40;;
18090;SDS011;9172;49.948;9.208;2023-09-19T04:38:18;1.60;;;1.10;;
18090;SDS011;9172;49.948;9.208;2023-09-19T04:40:47;3.97;;;1.70;;
18090;SDS011;9172;49.948;9.208;2023-09-19T04:43:15;3.13;;;1.23;;
18090;SDS011;9172;49.948;9.208;2023-09-19T04:45:44;2.63;;;1.20;;
18090;SDS011;9172;49.948;9.208;2023-09-19T04:48:13;1.80;;;1.40;;
18090;SDS011;9172;49.948;9.208;2023-09-19T04:50:42;3.13;;;1.30;;
18090;SDS011;9172;49.948;9.208;2023-09-19T04:53:11;1.77;;;1.20;;
18090;SDS011;9172;49.948;9.208;2023-09-19T04:55:39;1.63;;;1.20;;
18090;SDS011;9172;49.948;9.208;2023-09-19T04:58:08;4.03;;;1.50;;
18090;SDS011;9172;49.948;9.208;2023-09-19T05:00:37;2.43;;;1.33;;
18090;SDS011;9172;49.948;9.208;2023-09-19T05:03:05;1.93;;;1.00;;
18090;SDS011;9172;49.948;9.208;2023-09-19T05:05:35;7.03;;;1.60;;
18090;SDS011;9172;49.948;9.208;2023-09-19T05:08:05;3.30;;;1.53;;
18090;SDS011;9172;49.948;9.208;2023-09-19T05:10:35;3.03;;;1.20;;
18090;SDS011;9172;49.948;9.208;2023-09-19T05:13:04;6.10;;;1.23;;
18090;SDS011;9172;49.948;9.208;2023-09-19T05:15:34;3.17;;;1.40;;
18090;SDS011;9172;49.948;9.208;2023-09-19T05:18:03;3.30;;;1.33;;
18090;SDS011;9172;49.948;9.208;2023-09-19T05:20:32;3.03;;;1.10;;
18090;SDS011;9172;49.948;9.208;2023-09-19T05:23:03;2.37;;;1.20;;
18090;SDS011;9172;49.948;9.208;2023-09-19T05:25:35;2.23;;;1.30;;
18090;SDS011;9172;49.948;9.208;2023-09-19T05:28:05;4.37;;;1.43;;
18090;SDS011;9172;49.948;9.208;2023-09-19T05:30:34;2.40;;;1.10;;
18090;SDS011;9172;49.948;9.208;2023-09-19T05:33:04;2.20;;;1.10;;
18090;SDS011;9172;49.948;9.208;2023-09-19T05:35:34;2.87;;;1.30;;
18090;SDS011;9172;49.948;9.208;2023-09-19T05:38:05;4.73;;;1.80;;
18090;SDS011;9172;49.948;9.208;2023-09-19T05:40:35;3.23;;;1.53;;
18090;SDS011;9172;49.948;9.208;2023-09-19T05:43:05;7.20;;;1.57;;
18090;SDS011;9172;49.948;9.208;2023-09-19T05:45:34;2.07;;;1.03;;
18090;SDS011;9172;49.948;9.208;2023-09-19T05:48:10;5.53;;;1.43;;
18090;SDS011;9172;49.948;9.208;2023-09-19T05:50:41;4.17;;;1.33;;
18090;SDS011;9172;49.948;9.208;2023-09-19T05:53:12;3.20;;;1.40;;
18090;SDS011;9172;49.948;9.208;2023-09-19T05:55:40;2.33;;;1.40;;
18090;SDS011;9172;49.948;9.208;2023-09-19T05:58:09;2.40;;;1.27;;
18090;SDS011;9172;49.948;9.208;2023-09-19T06:00:40;4.17;;;1.70;;
18090;SDS011;9172;49.948;9.208;2023-09-19T06:03:10;6.13;;;1.43;;
18090;SDS011;9172;49.948;9.208;2023-09-19T06:05:40;5.90;;;1.80;;
18090;SDS011;9172;49.948;9.208;2023-09-19T06:08:08;2.07;;;1.40;;
18090;SDS011;9172;49.948;9.208;2023-09-19T06:10:37;7.97;;;1.40;;
18090;SDS011;9172;49.948;9.208;2023-09-19T06:13:06;2.87;;;1.50;;
18090;SDS011;9172;49.948;9.208;2023-09-19T06:15:36;2.67;;;1.37;;
18090;SDS011;9172;49.948;9.208;2023-09-19T06:18:10;3.10;;;1.40;;
18090;SDS011;9172;49.948;9.208;2023-09-19T06:20:41;4.33;;;1.40;;
18090;SDS011;9172;49.948;9.208;2023-09-19T06:23:10;3.13;;;1.40;;
18090;SDS011;9172;49.948;9.208;2023-09-19T06:25:39;4.93;;;1.70;;
18090;SDS011;9172;49.948;9.208;2023-09-19T06:28:09;6.47;;;2.00;;
18090;SDS011;9172;49.948;9.208;2023-09-19T06:30:39;6.20;;;1.60;;
18090;SDS011;9172;49.948;9.208;2023-09-19T06:33:08;4.47;;;1.60;;
18090;SDS011;9172;49.948;9.208;2023-09-19T06:35:37;8.20;;;1.77;;
18090;SDS011;9172;49.948;9.208;2023-09-19T06:38:08;3.53;;;1.60;;
18090;SDS011;9172;49.948;9.208;2023-09-19T06:40:39;2.67;;;1.30;;
18090;SDS011;9172;49.948;9.208;2023-09-19T06:43:09;3.50;;;1.63;;
18090;SDS011;9172;49.948;9.208;2023-09-19T06:45:38;2.40;;;1.60;;
18090;SDS011;9172;49.948;9.208;2023-09-19T06:48:07;3.10;;;1.43;;
18090;SDS011;9172;49.948;9.208;2023-09-19T06:50:36;4.30;;;1.67;;
18090;SDS011;9172;49.948;9.208;2023-09-19T06:53:06;2.70;;;1.63;;
18090;SDS011;9172;49.948;9.208;2023-09-19T06:55:36;4.27;;;1.90;;
18090;SDS011;9172;49.948;9.208;2023-09-19T06:58:04;4.27;;;1.63;;
18090;SDS011;9172;49.948;9.208;2023-09-19T07:00:34;9.40;;;2.80;;
18090;SDS011;9172;49.948;9.208;2023-09-19T07:03:04;4.37;;;1.50;;
18090;SDS011;9172;49.948;9.208;2023-09-19T07:05:36;5.67;;;1.90;;
18090;SDS011;9172;49.948;9.208;2023-09-19T07:08:06;8.40;;;1.63;;
18090;SDS011;9172;49.948;9.208;2023-09-19T07:10:37;4.70;;;1.70;;
18090;SDS011;9172;49.948;9.208;2023-09-19T07:13:08;3.17;;;1.37;;
18090;SDS011;9172;49.948;9.208;2023-09-19T07:15:37;4.80;;;1.60;;
18090;SDS011;9172;49.948;9.208;2023-09-19T07:18:07;8.40;;;2.17;;
18090;SDS011;9172;49.948;9.208;2023-09-19T07:20:37;8.40;;;1.63;;
18090;SDS011;9172;49.948;9.208;2023-09-19T07:23:06;5.53;;;1.50;;
18090;SDS011;9172;49.948;9.208;2023-09-19T07:25:35;4.40;;;1.60;;
18090;SDS011;9172;49.948;9.208;2023-09-19T07:28:04;6.30;;;1.73;;
18090;SDS011;9172;49.948;9.208;2023-09-19T07:30:36;4.30;;;1.57;;
18090;SDS011;9172;49.948;9.208;2023-09-19T07:33:05;5.00;;;1.33;;
18090;SDS011;9172;49.948;9.208;2023-09-19T07:35:36;5.57;;;1.70;;
18090;SDS011;9172;49.948;9.208;2023-09-19T07:38:06;6.77;;;1.50;;
18090;SDS011;9172;49.948;9.208;2023-09-19T07:40:36;5.27;;;1.40;;
18090;SDS011;9172;49.948;9.208;2023-09-19T07:43:05;5.00;;;1.60;;
18090;SDS011;9172;49.948;9.208;2023-09-19T07:45:34;2.47;;;1.50;;
18090;SDS011;9172;49.948;9.208;2023-09-19T07:48:04;8.00;;;1.90;;
18090;SDS011;9172;49.948;9.208;2023-09-19T07:50:34;8.20;;;2.07;;
18090;SDS011;9172;49.948;9.208;2023-09-19T07:53:03;3.43;;;1.57;;
18090;SDS011;9172;49.948;9.208;2023-09-19T07:55:32;10.73;;;2.00;;
18090;SDS011;9172;49.948;9.208;2023-09-19T07:58:00;5.37;;;1.80;;
18090;SDS011;9172;49.948;9.208;2023-09-19T08:00:31;4.13;;;1.50;;
18090;SDS011;9172;49.948;9.208;2023-09-19T08:03:01;6.83;;;1.80;;
18090;SDS011;9172;49.948;9.208;2023-09-19T08:05:30;7.80;;;1.57;;
18090;SDS011;9172;49.948;9.208;2023-09-19T08:07:59;9.67;;;1.83;;
18090;SDS011;9172;49.948;9.208;2023-09-19T08:10:28;2.33;;;1.47;;
18090;SDS011;9172;49.948;9.208;2023-09-19T08:12:58;6.60;;;1.77;;
18090;SDS011;9172;49.948;9.208;2023-09-19T08:15:28;6.17;;;1.30;;
18090;SDS011;9172;49.948;9.208;2023-09-19T08:17:58;5.53;;;1.80;;
18090;SDS011;9172;49.948;9.208;2023-09-19T08:20:28;4.43;;;1.80;;
18090;SDS011;9172;49.948;9.208;2023-09-19T08:22:57;5.73;;;1.60;;
18090;SDS011;9172;49.948;9.208;2023-09-19T08:25:26;4.80;;;1.50;;
18090;SDS011;9172;49.948;9.208;2023-09-19T08:27:55;4.20;;;1.70;;
18090;SDS011;9172;49.948;9.208;2023-09-19T08:30:25;5.10;;;1.73;;
18090;SDS011;9172;49.948;9.208;2023-09-19T08:32:57;9.30;;;1.40;;
18090;SDS011;9172;49.948;9.208;2023-09-19T08:35:26;4.93;;;1.47;;
18090;SDS011;9172;49.948;9.208;2023-09-19T08:37:55;4.70;;;1.33;;
18090;SDS011;9172;49.948;9.208;2023-09-19T08:40:23;4.23;;;1.43;;
18090;SDS011;9172;49.948;9.208;2023-09-19T08:42:56;4.57;;;1.30;;
18090;SDS011;9172;49.948;9.208;2023-09-19T08:45:32;7.80;;;1.90;;
18090;SDS011;9172;49.948;9.208;2023-09-19T08:48:07;2.63;;;1.27;;
18090;SDS011;9172;49.948;9.208;2023-09-19T08:50:48;6.50;;;1.30;;
18090;SDS011;9172;49.948;9.208;2023-09-19T08:53:21;3.23;;;1.53;;
18090;SDS011;9172;49.948;9.208;2023-09-19T08:55:55;5.20;;;1.23;;
18090;SDS011;9172;49.948;9.208;2023-09-19T08:58:26;2.63;;;1.33;;
18090;SDS011;9172;49.948;9.208;2023-09-19T09:00:57;6.83;;;1.93;;
18090;SDS011;9172;49.948;9.208;2023-09-19T09:03:28;6.40;;;2.07;;
18090;SDS011;9172;49.948;9.208;2023-09-19T09:06:07;3.93;;;1.30;;
18090;SDS011;9172;49.948;9.208;2023-09-19T09:08:38;4.23;;;1.20;;
18090;SDS011;9172;49.948;9.208;2023-09-19T09:11:08;5.83;;;1.40;;
18090;SDS011;9172;49.948;9.208;2023-09-19T09:13:37;6.00;;;1.80;;
18090;SDS011;9172;49.948;9.208;2023-09-19T09:16:07;5.63;;;1.60;;
18090;SDS011;9172;49.948;9.208;2023-09-19T09:18:36;5.53;;;1.60;;
18090;SDS011;9172;49.948;9.208;2023-09-19T09:21:05;4.20;;;1.60;;
18090;SDS011;9172;49.948;9.208;2023-09-19T09:23:34;3.93;;;1.30;;
18090;SDS011;9172;49.948;9.208;2023-09-19T09:26:03;3.87;;;1.40;;
18090;SDS011;9172;49.948;9.208;2023-09-19T09:28:33;4.90;;;1.30;;
18090;SDS011;9172;49.948;9.208;2023-09-19T09:31:04;3.20;;;1.33;;
18090;SDS011;9172;49.948;9.208;2023-09-19T09:33:35;4.70;;;1.50;;
18090;SDS011;9172;49.948;9.208;2023-09-19T09:36:06;6.80;;;1.50;;
18090;SDS011;9172;49.948;9.208;2023-09-19T09:38:43;6.13;;;1.57;;
18090;SDS011;9172;49.948;9.208;2023-09-19T09:41:15;3.30;;;1.37;;
18090;SDS011;9172;49.948;9.208;2023-09-19T09:43:46;3.73;;;1.60;;
18090;SDS011;9172;49.948;9.208;2023-09-19T09:46:15;4.13;;;1.27;;
18090;SDS011;9172;49.948;9.208;2023-09-19T09:49:03;3.60;;;1.50;;
18090;SDS011;9172;49.948;9.208;2023-09-19T09:51:49;5.37;;;1.40;;
18090;SDS011;9172;49.948;9.208;2023-09-19T09:54:27;2.63;;;1.30;;
18090;SDS011;9172;49.948;9.208;2023-09-19T09:57:04;2.73;;;1.43;;
18090;SDS011;9172;49.948;9.208;2023-09-19T09:59:44;4.03;;;1.60;;
18090;SDS011;9172;49.948;9.208;2023-09-19T10:02:14;5.07;;;1.50;;
18090;SDS011;9172;49.948;9.208;2023-09-19T10:04:46;5.50;;;1.10;;
18090;SDS011;9172;49.948;9.208;2023-09-19T10:07:27;6.77;;;1.43;;
18090;SDS011;9172;49.948;9.208;2023-09-19T10:09:59;4.70;;;1.40;;
18090;SDS011;9172;49.948;9.208;2023-09-19T10:12:58;3.33;;;1.30;;
18090;SDS011;9172;49.948;9.208;2023-09-19T10:15:29;2.57;;;1.30;;
18090;SDS011;9172;49.948;9.208;2023-09-19T10:18:10;4.27;;;1.37;;
18090;SDS011;9172;49.948;9.208;2023-09-19T10:20:41;10.90;;;1.70;;
18090;SDS011;9172;49.948;9.208;2023-09-19T10:23:12;3.87;;;1.50;;
18090;SDS011;9172;49.948;9.208;2023-09-19T10:25:41;4.90;;;1.67;;
18090;SDS011;9172;49.948;9.208;2023-09-19T10:28:13;5.97;;;1.83;;
18090;SDS011;9172;49.948;9.208;2023-09-19T10:30:46;10.53;;;1.80;;
18090;SDS011;9172;49.948;9.208;2023-09-19T10:33:17;3.83;;;1.70;;
18090;SDS011;9172;49.948;9.208;2023-09-19T10:35:47;7.07;;;1.90;;
18090;SDS011;9172;49.948;9.208;2023-09-19T10:38:18;6.47;;;1.43;;
18090;SDS011;9172;49.948;9.208;2023-09-19T10:40:49;5.27;;;1.80;;
18090;SDS011;9172;49.948;9.208;2023-09-19T10:43:19;3.93;;;1.37;;
18090;SDS011;9172;49.948;9.208;2023-09-19T10:45:50;2.50;;;1.30;;
18090;SDS011;9172;49.948;9.208;2023-09-19T10:48:19;3.87;;;1.40;;
18090;SDS011;9172;49.948;9.208;2023-09-19T10:50:51;6.63;;;1.43;;
18090;SDS011;9172;49.948;9.208;2023-09-19T10:53:24;8.37;;;1.50;;
18090;SDS011;9172;49.948;9.208;2023-09-19T10:55:56;8.37;;;1.50;;
18090;SDS011;9172;49.948;9.208;2023-09-19T10:58:27;3.53;;;1.40;;
18090;SDS011;9172;49.948;9.208;2023-09-19T11:00:59;5.73;;;1.70;;
18090;SDS011;9172;49.948;9.208;2023-09-19T11:03:30;4.73;;;1.50;;
18090;SDS011;9172;49.948;9.208;2023-09-19T11:06:00;3.83;;;1.50;;
18090;SDS011;9172;49.948;9.208;2023-09-19T11:11:39;8.30;;;1.93;;
18090;SDS011;9172;49.948;9.208;2023-09-19T11:14:15;9.23;;;2.00;;
18090;SDS011;9172;49.948;9.208;2023-09-19T11:20:22;5.57;;;1.40;;
18090;SDS011;9172;49.948;9.208;2023-09-19T11:23:17;8.00;;;1.53;;
18090;SDS011;9172;49.948;9.208;2023-09-19T11:25:51;3.97;;;1.17;;
18090;SDS011;9172;49.948;9.208;2023-09-19T11:28:27;8.50;;;1.27;;
18090;SDS011;9172;49.948;9.208;2023-09-19T11:40:41;2.53;;;1.13;;
18090;SDS011;9172;49.948;9.208;2023-09-19T11:43:30;4.93;;;1.60;;
18090;SDS011;9172;49.948;9.208;2023-09-19T11:46:04;8.00;;;1.63;;
18090;SDS011;9172;49.948;9.208;2023-09-19T11:48:33;4.27;;;1.33;;
18090;SDS011;9172;49.948;9.208;2023-09-19T11:51:11;8.23;;;1.87;;
18090;SDS011;9172;49.948;9.208;2023-09-19T11:53:48;4.27;;;1.20;;
18090;SDS011;9172;49.948;9.208;2023-09-19T11:56:19;4.87;;;1.40;;
18090;SDS011;9172;49.948;9.208;2023-09-19T11:58:50;3.93;;;1.33;;
18090;SDS011;9172;49.948;9.208;2023-09-19T12:01:25;5.23;;;1.47;;
18090;SDS011;9172;49.948;9.208;2023-09-19T12:03:56;4.87;;;1.30;;
18090;SDS011;9172;49.948;9.208;2023-09-19T12:06:26;5.63;;;1.50;;
18090;SDS011;9172;49.948;9.208;2023-09-19T12:08:56;6.77;;;1.23;;
18090;SDS011;9172;49.948;9.208;2023-09-19T12:11:28;4.87;;;1.83;;
18090;SDS011;9172;49.948;9.208;2023-09-19T12:13:59;3.83;;;1.40;;
18090;SDS011;9172;49.948;9.208;2023-09-19T12:16:28;2.87;;;1.07;;
18090;SDS011;9172;49.948;9.208;2023-09-19T12:18:59;3.60;;;1.27;;
18090;SDS011;9172;49.948;9.208;2023-09-19T12:21:56;2.40;;;1.10;;
18090;SDS011;9172;49.948;9.208;2023-09-19T12:24:27;4.90;;;1.33;;
18090;SDS011;9172;49.948;9.208;2023-09-19T12:27:00;3.57;;;1.60;;
18090;SDS011;9172;49.948;9.208;2023-09-19T12:29:32;6.73;;;1.33;;
18090;SDS011;9172;49.948;9.208;2023-09-19T12:32:09;4.43;;;1.20;;
18090;SDS011;9172;49.948;9.208;2023-09-19T12:34:40;4.40;;;1.33;;
18090;SDS011;9172;49.948;9.208;2023-09-19T12:37:12;11.27;;;1.93;;
18090;SDS011;9172;49.948;9.208;2023-09-19T12:39:44;4.97;;;1.27;;
18090;SDS011;9172;49.948;9.208;2023-09-19T12:42:15;3.07;;;1.03;;
18090;SDS011;9172;49.948;9.208;2023-09-19T12:44:46;6.30;;;1.40;;
18090;SDS011;9172;49.948;9.208;2023-09-19T12:47:18;5.13;;;1.67;;
18090;SDS011;9172;49.948;9.208;2023-09-19T12:50:05;8.63;;;1.70;;
18090;SDS011;9172;49.948;9.208;2023-09-19T12:52:43;3.77;;;1.30;;
18090;SDS011;9172;49.948;9.208;2023-09-19T12:55:21;5.67;;;1.40;;
18090;SDS011;9172;49.948;9.208;2023-09-19T12:57:57;3.40;;;1.20;;
18090;SDS011;9172;49.948;9.208;2023-09-19T13:00:36;3.90;;;1.30;;
18090;SDS011;9172;49.948;9.208;2023-09-19T13:03:15;5.53;;;1.63;;
18090;SDS011;9172;49.948;9.208;2023-09-19T13:05:51;4.03;;;1.07;;
18090;SDS011;9172;49.948;9.208;2023-09-19T13:08:23;4.40;;;1.20;;
18090;SDS011;9172;49.948;9.208;2023-09-19T13:11:04;3.23;;;1.00;;
18090;SDS011;9172;49.948;9.208;2023-09-19T13:13:37;1.83;;;1.00;;
18090;SDS011;9172;49.948;9.208;2023-09-19T13:16:07;7.37;;;1.40;;
18090;SDS011;9172;49.948;9.208;2023-09-19T13:18:44;4.23;;;1.10;;
18090;SDS011;9172;49.948;9.208;2023-09-19T13:21:16;5.30;;;1.20;;
18090;SDS011;9172;49.948;9.208;2023-09-19T13:23:50;3.63;;;1.00;;
18090;SDS011;9172;49.948;9.208;2023-09-19T13:26:20;2.90;;;1.00;;
18090;SDS011;9172;49.948;9.208;2023-09-19T13:28:49;2.73;;;0.90;;
18090;SDS011;9172;49.948;9.208;2023-09-19T13:31:18;4.90;;;0.87;;
18090;SDS011;9172;49.948;9.208;2023-09-19T13:33:47;8.53;;;1.83;;
18090;SDS011;9172;49.948;9.208;2023-09-19T13:36:16;3.73;;;1.30;;
18090;SDS011;9172;49.948;9.208;2023-09-19T13:38:45;4.97;;;1.10;;
18090;SDS011;9172;49.948;9.208;2023-09-19T13:41:15;3.00;;;1.20;;
18090;SDS011;9172;49.948;9.208;2023-09-19T13:43:44;4.70;;;1.10;;
18090;SDS011;9172;49.948;9.208;2023-09-19T13:46:14;2.17;;;0.90;;
18090;SDS011;9172;49.948;9.208;2023-09-19T13:48:44;4.10;;;1.63;;
18090;SDS011;9172;49.948;9.208;2023-09-19T13:51:12;3.63;;;1.10;;
18090;SDS011;9172;49.948;9.208;2023-09-19T13:53:41;4.87;;;1.20;;
18090;SDS011;9172;49.948;9.208;2023-09-19T13:56:10;3.73;;;1.30;;
18090;SDS011;9172;49.948;9.208;2023-09-19T13:58:39;2.70;;;1.17;;
18090;SDS011;9172;49.948;9.208;2023-09-19T14:01:08;3.90;;;0.97;;
18090;SDS011;9172;49.948;9.208;2023-09-19T14:03:38;2.27;;;1.20;;
18090;SDS011;9172;49.948;9.208;2023-09-19T14:06:10;2.97;;;0.90;;
18090;SDS011;9172;49.948;9.208;2023-09-19T14:08:38;3.70;;;0.90;;
18090;SDS011;9172;49.948;9.208;2023-09-19T14:11:07;2.97;;;1.07;;
18090;SDS011;9172;49.948;9.208;2023-09-19T14:13:36;2.37;;;0.90;;
18090;SDS011;9172;49.948;9.208;2023-09-19T14:16:04;4.33;;;1.23;;
18090;SDS011;9172;49.948;9.208;2023-09-19T14:18:34;5.30;;;1.10;;
18090;SDS011;9172;49.948;9.208;2023-09-19T14:21:03;2.63;;;1.07;;
18090;SDS011;9172;49.948;9.208;2023-09-19T14:23:34;3.13;;;1.20;;
18090;SDS011;9172;49.948;9.208;2023-09-19T14:26:03;6.77;;;1.17;;
18090;SDS011;9172;49.948;9.208;2023-09-19T14:28:32;3.63;;;1.20;;
18090;SDS011;9172;49.948;9.208;2023-09-19T14:31:04;4.83;;;1.10;;
18090;SDS011;9172;49.948;9.208;2023-09-19T14:33:35;3.90;;;1.10;;
18090;SDS011;9172;49.948;9.208;2023-09-19T14:36:04;2.17;;;1.10;;
18090;SDS011;9172;49.948;9.208;2023-09-19T14:38:35;3.77;;;0.90;;
18090;SDS011;9172;49.948;9.208;2023-09-19T14:41:05;2.87;;;0.90;;
18090;SDS011;9172;49.948;9.208;2023-09-19T14:43:33;5.37;;;0.83;;
18090;SDS011;9172;49.948;9.208;2023-09-19T14:46:05;7.20;;;1.30;;
18090;SDS011;9172;49.948;9.208;2023-09-19T14:48:36;3.23;;;0.80;;
18090;SDS011;9172;49.948;9.208;2023-09-19T14:51:04;2.40;;;1.07;;
18090;SDS011;9172;49.948;9.208;2023-09-19T14:53:35;3.33;;;1.00;;
18090;SDS011;9172;49.948;9.208;2023-09-19T14:56:04;4.30;;;1.20;;
18090;SDS011;9172;49.948;9.208;2023-09-19T14:58:34;2.97;;;0.80;;
18090;SDS011;9172;49.948;9.208;2023-09-19T15:01:05;2.30;;;0.83;;
18090;SDS011;9172;49.948;9.208;2023-09-19T15:03:36;7.07;;;1.17;;
18090;SDS011;9172;49.948;9.208;2023-09-19T15:06:06;3.63;;;1.50;;
18090;SDS011;9172;49.948;9.208;2023-09-19T15:08:38;5.10;;;1.10;;
18090;SDS011;9172;49.948;9.208;2023-09-19T15:11:09;1.97;;;0.80;;
18090;SDS011;9172;49.948;9.208;2023-09-19T15:13:39;3.90;;;0.90;;
18090;SDS011;9172;49.948;9.208;2023-09-19T15:16:08;2.73;;;0.90;;
18090;SDS011;9172;49.948;9.208;2023-09-19T15:18:38;7.13;;;0.90;;
18090;SDS011;9172;49.948;9.208;2023-09-19T15:21:08;2.93;;;1.00;;
18090;SDS011;9172;49.948;9.208;2023-09-19T15:23:39;5.13;;;1.00;;
18090;SDS011;9172;49.948;9.208;2023-09-19T15:26:09;3.43;;;1.20;;
18090;SDS011;9172;49.948;9.208;2023-09-19T15:28:39;1.83;;;0.80;;
18090;SDS011;9172;49.948;9.208;2023-09-19T15:31:09;5.60;;;1.40;;
18090;SDS011;9172;49.948;9.208;2023-09-19T15:33:38;1.47;;;0.60;;
18090;SDS011;9172;49.948;9.208;2023-09-19T15:36:08;3.13;;;1.30;;
18090;SDS011;9172;49.948;9.208;2023-09-19T15:38:56;4.23;;;0.80;;
18090;SDS011;9172;49.948;9.208;2023-09-19T15:41:27;5.97;;;1.27;;
18090;SDS011;9172;49.948;9.208;2023-09-19T15:43:57;1.80;;;0.80;;